Time;durP1;ratioP1;P1;durP2;ratioP2;P2;SDS_P1;SDS_P2;PMS_P1;PMS_P2;Temp;Humidity;BMP_temperature;BMP_pressure;BME280_temperature;BME280_humidity;BME280_pressure;Samples;Min_cycle;Max_cycle;Signal;HPM_P1;HPM_P2
2023/05/26 00:02:14;;;;;;;14.03;4.43;;;14.10;99.90;;;;;;5025878;28;20290;-64
2023/05/26 00:04:43;;;;;;;11.57;4.30;;;14.10;99.90;;;;;;5024245;28;20219;-65
2023/05/26 00:07:08;;;;;;;11.23;5.27;;;14.10;99.90;;;;;;5025274;28;20211;-65
2023/05/26 00:09:34;;;;;;;13.60;6.47;;;14.10;99.90;;;;;;5026505;28;20263;-65
2023/05/26 00:12:01;;;;;;;10.17;4.87;;;14.10;99.90;;;;;;5034121;28;20857;-65
2023/05/26 00:14:26;;;;;;;14.70;5.10;;;14.00;99.90;;;;;;5028065;28;20608;-66
2023/05/26 00:16:53;;;;;;;12.43;5.53;;;13.90;99.90;;;;;;5030078;28;20195;-65
2023/05/26 00:19:19;;;;;;;13.20;5.53;;;13.90;99.90;;;;;;5027678;28;20211;-65
2023/05/26 00:21:45;;;;;;;11.73;4.93;;;13.80;99.90;;;;;;5029176;28;20277;-65
2023/05/26 00:24:11;;;;;;;10.97;4.60;;;13.70;99.90;;;;;;5029393;28;20761;-69
2023/05/26 00:26:36;;;;;;;11.00;5.10;;;13.60;99.90;;;;;;5027882;28;20184;-66
2023/05/26 00:29:02;;;;;;;16.23;5.23;;;13.50;99.90;;;;;;5023183;28;20287;-64
2023/05/26 00:31:29;;;;;;;17.83;5.20;;;13.50;99.90;;;;;;5025975;28;20207;-63
2023/05/26 00:33:55;;;;;;;12.93;5.43;;;13.40;99.90;;;;;;5029936;28;20584;-63
2023/05/26 00:36:20;;;;;;;9.57;3.90;;;13.40;99.90;;;;;;5029511;28;20193;-63
2023/05/26 00:38:46;;;;;;;10.93;5.00;;;13.40;99.90;;;;;;5027793;28;20203;-64
2023/05/26 00:41:11;;;;;;;9.73;4.30;;;13.50;99.90;;;;;;5019711;28;20245;-66
2023/05/26 00:43:36;;;;;;;12.50;5.47;;;13.50;99.90;;;;;;5023211;28;20214;-64
2023/05/26 00:46:02;;;;;;;10.10;5.13;;;13.60;99.90;;;;;;5032391;28;20649;-64
2023/05/26 00:48:27;;;;;;;12.30;5.33;;;13.60;99.90;;;;;;5038984;28;20237;-63
2023/05/26 00:50:53;;;;;;;14.37;5.37;;;13.60;99.90;;;;;;5037225;28;20620;-64
2023/05/26 00:53:19;;;;;;;11.67;4.97;;;13.50;99.90;;;;;;5039001;28;20210;-63
2023/05/26 00:55:50;;;;;;;14.63;5.67;;;13.40;99.90;;;;;;5038796;28;20207;-63
2023/05/26 00:58:16;;;;;;;21.00;5.70;;;13.40;99.90;;;;;;5030654;28;20208;-64
2023/05/26 01:00:42;;;;;;;13.23;5.13;;;13.30;99.90;;;;;;5032701;28;20204;-64
2023/05/26 01:03:11;;;;;;;15.90;5.27;;;13.30;99.90;;;;;;5036157;28;20298;-64
2023/05/26 01:05:37;;;;;;;13.90;4.17;;;13.30;99.90;;;;;;5038929;28;20227;-64
2023/05/26 01:08:02;;;;;;;14.23;6.00;;;13.30;99.90;;;;;;5038354;28;20302;-64
2023/05/26 01:10:31;;;;;;;12.50;5.10;;;13.20;99.90;;;;;;5033557;28;20704;-65
2023/05/26 01:13:01;;;;;;;13.83;5.27;;;13.20;99.90;;;;;;5036486;28;20285;-64
2023/05/26 01:15:36;;;;;;;14.97;4.67;;;13.00;99.90;;;;;;5038648;28;20218;-64
2023/05/26 01:18:13;;;;;;;13.97;4.87;;;12.90;99.90;;;;;;5037933;28;20218;-64
2023/05/26 01:20:45;;;;;;;8.37;4.60;;;12.90;99.90;;;;;;5032753;28;20598;-64
2023/05/26 01:23:35;;;;;;;15.43;5.27;;;12.90;99.90;;;;;;5038046;28;20215;-65
2023/05/26 01:26:48;;;;;;;13.07;5.03;;;12.90;99.90;;;;;;5023501;28;21129;-64
2023/05/26 01:29:21;;;;;;;10.03;4.40;;;13.00;99.90;;;;;;5020719;28;20229;-64
2023/05/26 01:31:47;;;;;;;12.47;4.63;;;12.80;99.90;;;;;;5038461;28;20194;-63
2023/05/26 01:34:12;;;;;;;18.00;5.77;;;12.90;99.90;;;;;;5037791;28;20284;-63
2023/05/26 01:36:38;;;;;;;10.47;4.30;;;12.90;99.90;;;;;;5038040;28;20235;-64
2023/05/26 01:39:05;;;;;;;10.57;4.63;;;12.90;99.90;;;;;;5036314;28;20191;-64
2023/05/26 01:41:53;;;;;;;12.93;5.37;;;12.90;99.90;;;;;;5038246;28;20207;-64
2023/05/26 01:44:23;;;;;;;14.80;5.23;;;12.80;99.90;;;;;;5028277;28;20215;-64
2023/05/26 01:46:50;;;;;;;15.00;5.10;;;12.80;99.90;;;;;;5030747;28;20206;-64
2023/05/26 01:49:18;;;;;;;15.53;5.83;;;12.60;99.90;;;;;;5037229;28;20203;-64
2023/05/26 01:51:50;;;;;;;14.97;6.17;;;12.70;99.90;;;;;;5038072;28;20203;-65
2023/05/26 01:54:18;;;;;;;8.73;5.30;;;12.70;99.90;;;;;;5038313;28;20218;-64
2023/05/26 01:56:45;;;;;;;13.37;4.87;;;12.70;99.90;;;;;;5037954;28;20198;-64
2023/05/26 01:59:11;;;;;;;14.97;5.30;;;12.70;99.90;;;;;;5036156;28;20340;-66
2023/05/26 02:01:37;;;;;;;12.33;5.20;;;12.70;99.90;;;;;;5037875;28;20209;-64
2023/05/26 02:04:03;;;;;;;13.87;5.30;;;12.70;99.90;;;;;;5037797;28;20573;-64
2023/05/26 02:06:29;;;;;;;11.93;5.30;;;12.70;99.90;;;;;;5037842;28;20278;-64
2023/05/26 02:08:55;;;;;;;11.03;4.97;;;12.70;99.90;;;;;;5037427;28;20277;-64
2023/05/26 02:11:20;;;;;;;10.87;5.00;;;12.70;99.90;;;;;;5037420;28;20206;-63
2023/05/26 02:13:46;;;;;;;12.47;5.67;;;12.60;99.90;;;;;;5032452;28;20212;-63
2023/05/26 02:16:13;;;;;;;12.90;5.43;;;12.50;99.90;;;;;;5033190;28;20215;-63
2023/05/26 02:18:39;;;;;;;13.57;6.20;;;12.50;99.90;;;;;;5036549;28;20321;-63
2023/05/26 02:21:04;;;;;;;10.93;5.53;;;12.50;99.90;;;;;;5031670;28;20300;-63
2023/05/26 02:23:29;;;;;;;10.63;5.33;;;12.40;99.90;;;;;;5037066;28;20205;-63
2023/05/26 02:25:55;;;;;;;13.03;5.20;;;12.50;99.90;;;;;;5035761;28;20201;-63
2023/05/26 02:28:20;;;;;;;14.70;5.00;;;12.40;99.90;;;;;;5037452;28;21096;-63
2023/05/26 02:30:46;;;;;;;16.87;6.23;;;12.40;99.90;;;;;;5036220;28;20207;-65
2023/05/26 02:33:11;;;;;;;13.97;5.03;;;12.40;99.90;;;;;;5023620;28;20726;-64
2023/05/26 02:35:37;;;;;;;10.67;6.07;;;12.40;99.90;;;;;;5029147;28;20203;-62
2023/05/26 02:38:02;;;;;;;14.73;5.07;;;12.40;99.90;;;;;;5026790;28;21066;-62
2023/05/26 02:40:28;;;;;;;14.70;6.07;;;12.30;99.90;;;;;;5025187;28;20198;-63
2023/05/26 02:42:53;;;;;;;16.47;6.57;;;12.30;99.90;;;;;;5025977;28;20576;-64
2023/05/26 02:45:19;;;;;;;15.67;6.13;;;12.20;99.90;;;;;;5026346;28;20203;-63
2023/05/26 02:47:44;;;;;;;11.60;6.53;;;12.10;99.90;;;;;;5030749;28;20535;-66
2023/05/26 02:50:10;;;;;;;12.87;5.10;;;12.10;99.90;;;;;;5025008;28;20283;-65
2023/05/26 02:52:35;;;;;;;13.63;5.53;;;12.10;99.90;;;;;;5029608;28;20195;-63
2023/05/26 02:55:01;;;;;;;14.37;5.50;;;12.10;99.90;;;;;;5018096;28;20204;-62
2023/05/26 02:57:27;;;;;;;15.53;5.20;;;12.00;99.90;;;;;;5027378;28;20217;-63
2023/05/26 02:59:52;;;;;;;10.73;5.97;;;11.90;99.90;;;;;;5027878;28;20346;-62
2023/05/26 03:02:18;;;;;;;17.97;6.70;;;11.80;99.90;;;;;;5027610;28;20257;-63
2023/05/26 03:04:44;;;;;;;13.47;5.77;;;11.80;99.90;;;;;;5025001;28;20199;-65
2023/05/26 03:07:10;;;;;;;13.60;6.00;;;11.70;99.90;;;;;;5026024;28;20198;-75
2023/05/26 03:09:35;;;;;;;17.07;5.63;;;11.70;99.90;;;;;;5026236;28;20225;-63
2023/05/26 03:12:00;;;;;;;16.60;5.93;;;11.60;99.90;;;;;;5030387;28;20202;-63
2023/05/26 03:14:27;;;;;;;16.13;5.57;;;11.50;99.90;;;;;;5024755;28;20240;-62
2023/05/26 03:16:52;;;;;;;14.10;5.93;;;11.40;99.90;;;;;;5027008;28;20304;-62
2023/05/26 03:19:18;;;;;;;14.87;6.37;;;11.30;99.90;;;;;;5027476;28;20948;-62
2023/05/26 03:21:45;;;;;;;14.50;5.40;;;11.30;99.90;;;;;;5026527;28;20208;-64
2023/05/26 03:24:11;;;;;;;12.97;6.10;;;11.20;99.90;;;;;;5026858;28;20220;-64
2023/05/26 03:26:36;;;;;;;13.77;5.67;;;11.20;99.90;;;;;;5025002;28;20195;-65
2023/05/26 03:29:02;;;;;;;10.13;5.93;;;11.20;99.90;;;;;;5024327;28;20187;-64
2023/05/26 03:31:27;;;;;;;18.67;6.17;;;11.10;99.90;;;;;;5026123;28;20881;-64
2023/05/26 03:33:53;;;;;;;17.07;5.40;;;11.10;99.90;;;;;;5025781;28;20265;-64
2023/05/26 03:36:18;;;;;;;15.20;6.00;;;11.10;99.90;;;;;;5025950;28;20629;-64
2023/05/26 03:38:44;;;;;;;14.07;6.33;;;11.20;99.90;;;;;;5026328;28;20260;-63
2023/05/26 03:41:09;;;;;;;18.67;6.20;;;11.10;99.90;;;;;;5024643;28;20207;-64
2023/05/26 03:43:35;;;;;;;18.50;6.87;;;11.20;99.90;;;;;;5036503;28;20692;-63
2023/05/26 03:46:00;;;;;;;13.80;6.00;;;11.30;99.90;;;;;;5042321;28;20201;-62
2023/05/26 03:48:26;;;;;;;15.87;6.33;;;11.30;99.90;;;;;;5042830;28;20543;-63
2023/05/26 03:50:52;;;;;;;16.73;6.37;;;11.30;99.90;;;;;;5042706;28;20201;-63
2023/05/26 03:53:17;;;;;;;19.33;5.67;;;11.40;99.90;;;;;;5040840;28;20232;-64
2023/05/26 03:55:43;;;;;;;15.30;5.70;;;11.40;99.90;;;;;;5042845;28;20205;-63
2023/05/26 03:58:09;;;;;;;14.60;6.20;;;11.40;99.90;;;;;;5040514;28;20216;-64
2023/05/26 04:00:34;;;;;;;12.33;5.20;;;11.30;99.90;;;;;;5035455;28;21029;-64
2023/05/26 04:03:00;;;;;;;18.30;5.70;;;11.40;99.90;;;;;;5037019;28;20218;-64
2023/05/26 04:05:26;;;;;;;14.83;6.37;;;11.30;99.90;;;;;;5038267;28;20202;-64
2023/05/26 04:07:52;;;;;;;14.23;4.93;;;11.40;99.90;;;;;;5040127;28;20195;-65
2023/05/26 04:10:17;;;;;;;19.17;6.20;;;11.40;99.90;;;;;;5037480;28;20210;-63
2023/05/26 04:12:43;;;;;;;15.57;6.30;;;11.40;99.90;;;;;;5042796;28;20285;-64
2023/05/26 04:15:09;;;;;;;11.73;4.93;;;11.40;99.90;;;;;;5042703;28;20291;-63
2023/05/26 04:17:36;;;;;;;15.67;5.13;;;11.30;99.90;;;;;;5042601;28;20209;-63
2023/05/26 04:20:05;;;;;;;15.77;5.77;;;11.20;99.90;;;;;;5042020;28;20293;-63
2023/05/26 04:22:31;;;;;;;15.20;5.60;;;11.00;99.90;;;;;;5042211;28;20252;-63
2023/05/26 04:24:57;;;;;;;16.57;6.23;;;11.00;99.90;;;;;;5042434;28;20254;-63
2023/05/26 04:27:24;;;;;;;19.43;6.27;;;11.10;99.90;;;;;;5038497;28;20654;-63
2023/05/26 04:29:50;;;;;;;19.00;5.53;;;11.10;99.90;;;;;;5041372;28;20197;-65
2023/05/26 04:32:16;;;;;;;18.33;6.07;;;11.20;99.90;;;;;;5036932;28;20683;-63
2023/05/26 04:34:44;;;;;;;19.23;6.50;;;11.10;99.90;;;;;;5031360;28;20202;-62
2023/05/26 04:37:10;;;;;;;21.53;5.80;;;11.10;99.90;;;;;;5035999;28;20781;-63
2023/05/26 04:39:36;;;;;;;13.93;5.73;;;11.10;99.90;;;;;;5035985;28;20216;-63
2023/05/26 04:42:03;;;;;;;16.40;5.53;;;11.20;99.90;;;;;;5026714;28;20214;-63
2023/05/26 04:44:29;;;;;;;18.67;5.77;;;11.10;99.90;;;;;;5034906;28;20288;-63
2023/05/26 04:46:54;;;;;;;13.13;5.43;;;11.10;99.90;;;;;;5030298;28;20285;-64
2023/05/26 04:49:23;;;;;;;16.97;5.67;;;11.20;99.90;;;;;;5032307;28;20353;-64
2023/05/26 04:51:55;;;;;;;10.93;5.33;;;11.20;99.90;;;;;;5030628;28;20261;-64
2023/05/26 04:54:21;;;;;;;17.87;5.37;;;11.30;99.90;;;;;;5028787;28;20215;-63
2023/05/26 04:56:47;;;;;;;15.97;6.00;;;11.40;99.90;;;;;;5029147;28;20211;-64
2023/05/26 04:59:12;;;;;;;14.67;5.33;;;11.50;99.90;;;;;;5028408;28;20210;-63
2023/05/26 05:01:38;;;;;;;16.03;5.73;;;11.70;99.90;;;;;;5026477;28;20211;-64
2023/05/26 05:04:04;;;;;;;16.90;5.07;;;11.70;99.90;;;;;;5029121;28;20219;-63
2023/05/26 05:06:29;;;;;;;16.43;5.37;;;11.70;99.90;;;;;;5029417;28;20261;-63
2023/05/26 05:08:55;;;;;;;14.07;5.57;;;11.60;99.90;;;;;;5029340;28;20198;-63
2023/05/26 05:11:20;;;;;;;13.87;5.40;;;11.60;99.90;;;;;;5029469;28;20943;-64
2023/05/26 05:13:46;;;;;;;15.07;5.43;;;11.60;99.90;;;;;;5029218;28;20201;-63
2023/05/26 05:16:11;;;;;;;19.57;5.67;;;11.70;99.90;;;;;;5031128;28;20866;-64
2023/05/26 05:18:37;;;;;;;16.97;6.53;;;11.70;99.90;;;;;;5028314;28;20201;-63
2023/05/26 05:21:03;;;;;;;15.40;5.63;;;11.70;99.90;;;;;;5024303;28;20195;-63
2023/05/26 05:23:34;;;;;;;15.27;5.93;;;11.90;99.90;;;;;;5030907;28;20255;-63
2023/05/26 05:26:00;;;;;;;18.50;5.47;;;12.00;99.90;;;;;;5033095;28;20213;-64
2023/05/26 05:28:26;;;;;;;19.13;5.40;;;11.90;99.90;;;;;;5036832;28;20203;-63
2023/05/26 05:30:51;;;;;;;16.67;4.90;;;12.00;99.90;;;;;;5037677;28;20203;-64
2023/05/26 05:33:17;;;;;;;11.53;4.47;;;12.00;99.90;;;;;;5038126;28;20366;-63
2023/05/26 05:35:45;;;;;;;19.80;5.30;;;12.00;99.90;;;;;;5038850;28;20220;-63
2023/05/26 05:38:11;;;;;;;22.43;6.50;;;12.00;99.90;;;;;;5037059;28;20379;-64
2023/05/26 05:40:36;;;;;;;16.90;8.53;;;12.10;99.90;;;;;;5024003;28;20199;-64
2023/05/26 05:43:02;;;;;;;18.07;5.93;;;12.20;99.90;;;;;;5036495;28;20211;-64
2023/05/26 05:45:27;;;;;;;22.17;5.60;;;12.30;99.90;;;;;;5037983;28;20653;-64
2023/05/26 05:47:53;;;;;;;14.73;6.20;;;12.20;99.90;;;;;;5037830;28;20199;-64
2023/05/26 05:50:18;;;;;;;18.43;5.47;;;12.30;99.90;;;;;;5038260;28;20227;-63
2023/05/26 05:52:44;;;;;;;16.10;5.63;;;12.30;99.90;;;;;;5036019;28;20199;-63
2023/05/26 05:55:10;;;;;;;14.10;6.10;;;12.30;99.90;;;;;;5037715;28;20213;-64
2023/05/26 05:57:36;;;;;;;13.37;5.20;;;12.30;99.90;;;;;;5037590;28;20205;-64
2023/05/26 06:00:03;;;;;;;14.33;5.60;;;12.40;99.90;;;;;;5033775;28;20704;-64
2023/05/26 06:02:29;;;;;;;18.60;5.30;;;12.50;99.90;;;;;;5020036;28;20634;-64
2023/05/26 06:04:54;;;;;;;14.73;4.93;;;12.50;99.90;;;;;;5022602;28;20228;-67
2023/05/26 06:07:20;;;;;;;17.87;6.17;;;12.50;99.90;;;;;;5021728;28;20199;-63
2023/05/26 06:09:45;;;;;;;20.67;5.73;;;12.60;99.90;;;;;;5021562;28;20202;-64
2023/05/26 06:12:11;;;;;;;11.23;4.70;;;12.60;99.90;;;;;;5020358;28;20214;-64
2023/05/26 06:14:38;;;;;;;17.73;5.33;;;12.70;99.90;;;;;;5020371;28;20677;-75
2023/05/26 06:17:04;;;;;;;16.90;5.13;;;12.80;99.90;;;;;;5032332;28;20202;-74
2023/05/26 06:19:30;;;;;;;20.83;6.23;;;12.90;99.90;;;;;;5033914;28;20225;-75
2023/05/26 06:21:56;;;;;;;18.70;5.80;;;13.00;99.90;;;;;;5037283;28;20210;-75
2023/05/26 06:24:21;;;;;;;15.20;4.97;;;13.00;99.90;;;;;;5037413;28;20205;-73
2023/05/26 06:26:47;;;;;;;17.17;5.57;;;12.90;99.90;;;;;;5037316;28;20206;-75
2023/05/26 06:29:12;;;;;;;15.43;4.67;;;13.10;99.90;;;;;;5031018;28;20238;-74
2023/05/26 06:31:38;;;;;;;20.80;4.97;;;13.30;99.90;;;;;;5032854;28;20206;-72
2023/05/26 06:34:03;;;;;;;15.20;4.37;;;13.30;99.90;;;;;;5036547;28;20307;-71
2023/05/26 06:36:29;;;;;;;11.50;5.03;;;13.40;99.90;;;;;;5021768;28;20193;-69
2023/05/26 06:38:54;;;;;;;19.70;5.07;;;13.40;99.90;;;;;;5037178;28;20618;-70
2023/05/26 06:41:20;;;;;;;12.07;4.50;;;13.40;99.90;;;;;;5031860;28;20213;-70
2023/05/26 06:43:46;;;;;;;17.17;4.90;;;13.60;99.90;;;;;;5032016;28;20219;-70
2023/05/26 06:46:11;;;;;;;12.17;4.87;;;13.80;99.90;;;;;;5021294;28;20208;-70
2023/05/26 06:48:37;;;;;;;16.87;5.63;;;13.80;99.90;;;;;;5021332;28;20199;-70
2023/05/26 06:51:02;;;;;;;11.17;4.23;;;13.80;99.90;;;;;;5021202;28;20199;-70
2023/05/26 06:53:28;;;;;;;19.20;5.40;;;13.60;99.90;;;;;;5021331;28;20199;-69
2023/05/26 06:55:53;;;;;;;17.00;4.77;;;13.70;99.90;;;;;;5021157;28;20234;-69
2023/05/26 06:58:19;;;;;;;15.63;5.63;;;13.90;99.90;;;;;;5018885;28;20351;-69
2023/05/26 07:01:02;;;;;;;17.03;4.43;;;14.10;99.90;;;;;;5020081;28;20249;-70
2023/05/26 07:03:28;;;;;;;10.47;4.97;;;14.10;99.90;;;;;;5015904;28;20302;-69
2023/05/26 07:05:57;;;;;;;21.17;6.00;;;14.20;99.90;;;;;;5020480;28;20219;-69
2023/05/26 07:08:23;;;;;;;10.73;4.57;;;14.20;99.90;;;;;;5019690;28;20207;-72
2023/05/26 07:10:49;;;;;;;23.53;5.20;;;14.30;99.90;;;;;;5034067;28;20214;-72
2023/05/26 07:13:15;;;;;;;15.10;5.97;;;14.40;99.90;;;;;;5036845;28;20210;-72
2023/05/26 07:15:42;;;;;;;18.83;5.43;;;14.40;99.90;;;;;;5034757;28;20205;-77
2023/05/26 07:18:08;;;;;;;13.83;4.87;;;14.40;99.90;;;;;;5031629;28;20206;-72
2023/05/26 07:20:34;;;;;;;22.17;5.33;;;14.40;99.90;;;;;;5035777;28;20198;-72
2023/05/26 07:22:59;;;;;;;17.10;5.30;;;14.50;99.90;;;;;;5036477;28;20230;-72
2023/05/26 07:25:25;;;;;;;15.33;4.73;;;14.60;99.90;;;;;;5035909;28;20230;-70
2023/05/26 07:27:51;;;;;;;16.30;4.57;;;14.70;99.90;;;;;;5033912;28;20199;-70
2023/05/26 07:30:17;;;;;;;15.40;5.37;;;14.70;99.90;;;;;;5033971;28;20548;-70
2023/05/26 07:32:43;;;;;;;20.40;5.73;;;14.70;99.90;;;;;;5020107;28;20211;-70
2023/05/26 07:35:08;;;;;;;15.87;4.20;;;14.70;99.90;;;;;;5032232;28;20207;-74
2023/05/26 07:37:33;;;;;;;10.23;4.77;;;14.80;99.90;;;;;;5035711;28;20226;-70
2023/05/26 07:39:59;;;;;;;14.50;4.27;;;14.70;99.90;;;;;;5025847;28;20596;-72
2023/05/26 07:42:25;;;;;;;19.80;4.80;;;14.90;99.90;;;;;;5022718;28;20286;-68
2023/05/26 07:44:50;;;;;;;11.53;4.00;;;15.00;99.90;;;;;;5022922;28;20424;-68
2023/05/26 07:47:16;;;;;;;20.93;4.27;;;14.90;99.90;;;;;;5024558;28;20285;-68
2023/05/26 07:49:41;;;;;;;15.17;4.50;;;15.00;99.90;;;;;;5021542;28;20203;-70
2023/05/26 07:52:07;;;;;;;18.63;4.60;;;15.10;99.90;;;;;;5016622;28;20217;-70
2023/05/26 07:54:32;;;;;;;15.40;4.20;;;15.20;99.90;;;;;;5024868;28;20214;-72
2023/05/26 07:56:58;;;;;;;15.90;4.73;;;15.10;99.90;;;;;;5036042;28;20199;-72
2023/05/26 07:59:23;;;;;;;15.40;4.43;;;15.20;99.90;;;;;;5035910;28;20194;-71
2023/05/26 08:01:49;;;;;;;16.77;4.63;;;15.30;99.90;;;;;;5031510;28;20217;-70
2023/05/26 08:04:14;;;;;;;16.73;4.60;;;15.40;99.90;;;;;;5033987;28;20280;-70
2023/05/26 08:06:40;;;;;;;13.83;3.77;;;15.40;99.90;;;;;;5034873;28;20657;-70
2023/05/26 08:09:06;;;;;;;13.97;4.13;;;15.40;99.90;;;;;;5025139;28;20199;-70
2023/05/26 08:11:32;;;;;;;17.00;5.03;;;15.50;99.90;;;;;;5025969;28;20211;-72
2023/05/26 08:13:58;;;;;;;17.17;4.23;;;15.50;99.90;;;;;;5025431;28;20218;-71
2023/05/26 08:16:24;;;;;;;19.37;4.57;;;15.50;99.90;;;;;;5025424;28;20192;-70
2023/05/26 08:18:50;;;;;;;13.53;5.23;;;15.60;99.90;;;;;;5023976;28;20253;-71
2023/05/26 08:21:16;;;;;;;15.27;4.10;;;15.70;99.90;;;;;;5025884;28;20208;-71
2023/05/26 08:23:41;;;;;;;15.27;4.93;;;15.70;99.90;;;;;;5027198;28;20695;-70
2023/05/26 08:26:08;;;;;;;35.33;8.07;;;15.80;99.90;;;;;;5025716;28;20710;-76
2023/05/26 08:28:34;;;;;;;38.13;19.87;;;15.90;99.90;;;;;;5024777;28;20202;-74
2023/05/26 08:30:59;;;;;;;41.53;20.13;;;15.70;99.90;;;;;;5026622;28;20198;-72
2023/05/26 08:33:25;;;;;;;18.27;5.87;;;15.50;99.90;;;;;;5027567;28;20207;-71
2023/05/26 08:35:50;;;;;;;14.07;4.70;;;15.20;99.90;;;;;;5029013;28;20210;-71
2023/05/26 08:38:16;;;;;;;17.37;6.27;;;15.10;99.90;;;;;;5028623;28;20717;-72
2023/05/26 08:40:42;;;;;;;16.10;4.60;;;14.90;99.90;;;;;;5033312;28;20659;-74
2023/05/26 08:43:09;;;;;;;13.33;4.43;;;14.80;99.90;;;;;;5027734;28;20211;-74
2023/05/26 08:45:37;;;;;;;16.67;4.27;;;14.90;99.90;;;;;;5030076;28;20191;-73
2023/05/26 08:48:07;;;;;;;12.30;4.73;;;14.60;99.90;;;;;;5029629;28;20249;-73
2023/05/26 08:50:32;;;;;;;15.40;4.20;;;14.60;99.90;;;;;;5027740;28;20289;-71
2023/05/26 08:53:00;;;;;;;14.87;4.10;;;14.60;99.90;;;;;;5029931;28;20286;-71
2023/05/26 08:55:27;;;;;;;13.80;4.73;;;14.60;99.90;;;;;;5027753;28;20227;-70
2023/05/26 08:58:05;;;;;;;14.97;4.97;;;14.50;99.90;;;;;;5028308;28;20238;-72
2023/05/26 09:00:41;;;;;;;11.77;4.20;;;14.60;99.90;;;;;;5027885;28;20226;-70
2023/05/26 09:03:07;;;;;;;10.67;4.20;;;14.70;99.90;;;;;;5026813;28;20850;-71
2023/05/26 09:05:34;;;;;;;12.43;4.17;;;15.10;99.90;;;;;;5036468;28;20230;-71
2023/05/26 09:08:05;;;;;;;13.67;4.23;;;15.50;99.90;;;;;;5038342;28;20831;-72
2023/05/26 09:10:32;;;;;;;12.63;4.73;;;15.60;99.90;;;;;;5037863;28;20195;-73
2023/05/26 09:13:02;;;;;;;10.97;4.70;;;15.70;99.30;;;;;;5033536;28;20680;-71
2023/05/26 09:15:28;;;;;;;18.17;3.67;;;16.00;99.70;;;;;;5038648;28;20209;-70
2023/05/26 09:17:54;;;;;;;10.13;3.53;;;16.00;96.90;;;;;;5038518;28;20190;-74
2023/05/26 09:20:20;;;;;;;22.53;4.67;;;16.20;95.30;;;;;;5031789;28;20862;-71
2023/05/26 09:22:45;;;;;;;10.33;3.67;;;16.20;97.10;;;;;;5037021;28;20688;-74
2023/05/26 09:25:11;;;;;;;15.70;3.90;;;16.30;95.00;;;;;;5038383;28;20518;-73
2023/05/26 09:27:37;;;;;;;10.63;3.57;;;16.40;96.30;;;;;;5038470;28;20194;-74
2023/05/26 09:30:04;;;;;;;12.73;4.20;;;16.60;95.60;;;;;;5036391;28;20198;-74
2023/05/26 09:32:31;;;;;;;21.73;5.60;;;16.70;95.70;;;;;;5038333;28;20203;-71
2023/05/26 09:35:00;;;;;;;11.57;3.40;;;16.70;96.70;;;;;;5038341;28;20203;-71
2023/05/26 09:37:29;;;;;;;9.67;3.60;;;16.70;96.50;;;;;;5038423;28;20237;-72
2023/05/26 09:40:17;;;;;;;13.83;4.17;;;16.80;96.90;;;;;;5036843;28;20219;-74
2023/05/26 09:42:53;;;;;;;14.97;4.33;;;16.90;96.70;;;;;;5037941;28;20222;-71
2023/05/26 09:45:19;;;;;;;10.07;4.40;;;17.10;97.70;;;;;;5037333;28;20214;-72
2023/05/26 09:47:45;;;;;;;11.57;3.17;;;17.20;96.40;;;;;;5038008;28;20199;-72
2023/05/26 09:50:11;;;;;;;13.27;3.80;;;17.20;95.50;;;;;;5038144;28;20624;-76
2023/05/26 09:52:36;;;;;;;13.87;4.53;;;17.30;95.00;;;;;;5036817;28;20210;-75
2023/05/26 09:55:03;;;;;;;9.83;3.50;;;17.40;94.50;;;;;;5024062;28;20186;-77
2023/05/26 09:57:29;;;;;;;14.37;4.13;;;17.40;93.30;;;;;;5032226;28;20204;-76
2023/05/26 09:59:56;;;;;;;10.00;3.10;;;17.50;92.80;;;;;;5037318;28;20573;-73
2023/05/26 10:02:25;;;;;;;9.13;4.00;;;17.60;93.10;;;;;;5032853;28;20206;-73
2023/05/26 10:04:52;;;;;;;15.47;3.97;;;17.60;94.10;;;;;;5032420;28;20206;-73
2023/05/26 10:07:19;;;;;;;7.20;2.77;;;17.70;90.70;;;;;;5036860;28;20572;-73
2023/05/26 10:09:55;;;;;;;9.07;3.40;;;17.80;87.50;;;;;;5034777;28;20203;-73
2023/05/26 10:12:26;;;;;;;11.57;3.50;;;17.90;88.50;;;;;;5035718;28;20333;-73
2023/05/26 10:14:53;;;;;;;15.87;3.80;;;18.00;87.30;;;;;;5025194;28;20545;-73
2023/05/26 10:17:19;;;;;;;8.17;3.00;;;18.00;91.00;;;;;;5033415;28;20215;-77
2023/05/26 10:19:45;;;;;;;9.03;2.83;;;18.00;89.70;;;;;;5038327;28;20199;-71
2023/05/26 10:22:18;;;;;;;8.23;2.83;;;18.10;86.60;;;;;;5036750;28;20213;-74
2023/05/26 10:24:51;;;;;;;9.47;4.43;;;18.10;90.10;;;;;;5037402;28;20713;-73
2023/05/26 10:27:40;;;;;;;13.73;4.13;;;18.00;90.80;;;;;;5037452;28;20206;-73
2023/05/26 10:30:11;;;;;;;12.33;4.30;;;17.80;93.70;;;;;;5021511;28;20195;-74
2023/05/26 10:32:51;;;;;;;9.53;3.23;;;17.80;94.40;;;;;;5036937;28;20199;-77
2023/05/26 10:35:24;;;;;;;6.90;3.00;;;17.50;94.50;;;;;;5030828;28;20211;-76
2023/05/26 10:37:56;;;;;;;14.97;3.17;;;17.60;92.50;;;;;;5037305;28;20219;-76
2023/05/26 10:40:27;;;;;;;10.37;3.60;;;17.80;91.50;;;;;;5022976;28;20217;-73
2023/05/26 10:42:58;;;;;;;9.30;3.10;;;17.80;91.30;;;;;;5037383;28;20217;-76
2023/05/26 10:45:24;;;;;;;11.07;4.10;;;17.90;91.50;;;;;;5037576;28;20679;-75
2023/05/26 10:47:49;;;;;;;14.67;3.87;;;17.90;90.30;;;;;;5037503;28;20485;-74
2023/05/26 10:50:15;;;;;;;17.53;3.93;;;18.10;85.00;;;;;;5036132;28;20244;-74
2023/05/26 10:52:49;;;;;;;9.33;3.43;;;18.20;88.00;;;;;;5036075;28;20661;-74
2023/05/26 10:55:43;;;;;;;8.20;2.97;;;18.30;89.30;;;;;;5035252;28;20210;-78
2023/05/26 10:58:34;;;;;;;8.43;2.73;;;18.60;90.50;;;;;;5037075;28;20207;-73
2023/05/26 11:01:02;;;;;;;13.10;3.73;;;19.00;85.80;;;;;;5036768;28;20204;-73
2023/05/26 11:03:35;;;;;;;7.93;2.70;;;19.00;83.60;;;;;;5034879;28;20254;-74
2023/05/26 11:06:01;;;;;;;7.87;2.93;;;19.00;79.80;;;;;;5037005;28;20296;-74
2023/05/26 11:08:37;;;;;;;6.00;3.40;;;19.10;82.30;;;;;;5034257;28;20253;-73
2023/05/26 11:11:05;;;;;;;8.27;2.80;;;19.30;84.60;;;;;;5033455;28;20727;-70
2023/05/26 11:13:50;;;;;;;10.77;3.87;;;19.40;85.20;;;;;;5031664;28;20317;-76
2023/05/26 11:16:23;;;;;;;8.07;3.50;;;19.50;79.60;;;;;;5035077;28;20675;-72
2023/05/26 11:18:57;;;;;;;9.10;3.23;;;19.70;81.40;;;;;;5024424;28;20227;-77
2023/05/26 11:21:28;;;;;;;13.37;4.10;;;19.80;76.80;;;;;;5036024;28;20204;-77
2023/05/26 11:23:58;;;;;;;12.57;4.13;;;20.00;77.00;;;;;;5036429;28;20308;-79
2023/05/26 11:26:26;;;;;;;8.50;3.43;;;19.90;76.20;;;;;;5036314;28;20349;-77
2023/05/26 11:28:52;;;;;;;15.70;4.03;;;20.00;76.70;;;;;;5034385;28;20199;-77
2023/05/26 11:31:19;;;;;;;12.97;3.90;;;20.10;75.50;;;;;;5034851;28;20237;-77
2023/05/26 11:33:46;;;;;;;9.63;3.90;;;20.10;74.40;;;;;;5035053;28;20302;-77
2023/05/26 11:36:17;;;;;;;11.13;3.40;;;20.20;74.80;;;;;;5036370;28;20214;-77
2023/05/26 11:38:44;;;;;;;11.17;3.37;;;20.60;75.60;;;;;;5037188;28;20261;-77
2023/05/26 11:41:13;;;;;;;10.13;3.00;;;20.50;73.30;;;;;;5036562;28;20622;-78
2023/05/26 11:43:39;;;;;;;7.33;3.63;;;20.80;75.20;;;;;;5034268;28;20223;-77
2023/05/26 11:46:09;;;;;;;7.87;3.70;;;21.00;74.90;;;;;;5027979;28;20206;-77
2023/05/26 11:48:39;;;;;;;8.43;3.43;;;21.10;72.50;;;;;;5036769;28;20287;-78
2023/05/26 11:51:13;;;;;;;11.03;2.90;;;21.30;71.80;;;;;;5036296;28;20237;-78
2023/05/26 11:53:40;;;;;;;8.80;3.80;;;21.30;72.40;;;;;;5036373;28;20656;-78
2023/05/26 11:56:08;;;;;;;12.60;4.20;;;21.20;70.90;;;;;;5031816;28;20288;-78
2023/05/26 11:58:35;;;;;;;6.30;3.53;;;21.30;71.10;;;;;;5035508;28;20602;-78
2023/05/26 12:01:02;;;;;;;8.53;3.17;;;21.30;70.80;;;;;;5035564;28;20267;-78
2023/05/26 12:03:28;;;;;;;10.03;3.73;;;21.30;72.40;;;;;;5036711;28;20234;-78
2023/05/26 12:06:15;;;;;;;10.57;3.53;;;21.60;70.00;;;;;;5038160;28;20202;-77
2023/05/26 12:08:43;;;;;;;12.33;3.43;;;21.80;68.90;;;;;;5023265;28;20286;-78
2023/05/26 12:11:20;;;;;;;11.30;3.57;;;21.90;71.10;;;;;;5039284;28;20237;-78
2023/05/26 12:13:47;;;;;;;8.97;3.27;;;22.10;66.40;;;;;;5039994;28;20194;-77
2023/05/26 12:16:22;;;;;;;8.17;3.10;;;22.10;66.60;;;;;;5039933;28;20288;-78
2023/05/26 12:18:52;;;;;;;10.87;3.27;;;22.00;64.50;;;;;;5040383;28;20279;-77
2023/05/26 12:21:18;;;;;;;9.70;3.73;;;21.90;65.50;;;;;;5039827;28;20206;-77
2023/05/26 12:23:48;;;;;;;9.17;4.43;;;21.90;63.30;;;;;;5033740;28;20217;-78
2023/05/26 12:26:17;;;;;;;10.67;3.53;;;22.00;64.60;;;;;;5039781;28;20245;-78
2023/05/26 12:28:43;;;;;;;8.50;3.10;;;22.30;64.80;;;;;;5040209;28;20274;-78
2023/05/26 12:31:10;;;;;;;8.88;3.15;;;22.40;63.90;;;;;;5039767;28;20207;-78
2023/05/26 12:33:35;;;;;;;7.60;3.10;;;22.10;62.10;;;;;;5038209;28;20207;-78
2023/05/26 12:36:01;;;;;;;6.80;3.13;;;22.40;62.50;;;;;;5040120;28;20283;-78
2023/05/26 12:38:27;;;;;;;8.67;3.03;;;22.30;58.00;;;;;;5037868;28;20262;-77
2023/05/26 12:40:53;;;;;;;13.10;3.20;;;22.20;56.60;;;;;;5033761;28;20277;-78